Главная страница
METAR-TAF:

METAR-TAF

Аэропорты :

Закаталы, Азербайджан

Парзиван

широта: 41-33-44N, долгота: 46-40-02E, высота над уровнем моря: 330 м

Текущие метеонаблюдения

Эта сводка был подготовлена 19 минут назад, в 11:00 UTC
Ветер 4 Узел от южный-юго-западный
Температура 22°C
Влажность 57%
Давление 1018 hPa
Видимость 10 км и более
Отдельные облака на высоте 5000 фута

METAR: UBBY 261100Z 21004KT 9999 SCT050 22/13 Q1018 R33/////// NOSIG RMK MT OP

Время: 15:19 (11:19 UTC)

Прогноз

Эта сводка был подготовлена 3 часа и 19 минут назад, в 08:00 UTC
Прогноз действительный с 26-го 09 UTC до 26-го 18 UTC
Ветер 4 Узел переменных направлений
Видимость 10 км и более
Отдельные облака на высоте 4000 фута
Рассеянная облачность на высоте 7000 фута

TAF: UBBY 260800Z 2609/2618 VRB04KT 9999 SCT040 BKN070

Метеонаблюдения и прогнозы для более 4000 аэропортов (сводки METAR и TAF).

Имеющиеся станции представлены на карте желтыми и красными точками.

Чтобы увидеть название станции, наведите на нее мышь.

Затем щелкните, чтобы увидеть метеонаблюдения и метеопрогнозы.

Управление картой: чтобы увеличить масштаб, щелкните зеленые кнопки с черным крестиком; чтобы уменьшить масштаб, щелкните зеленую кнопку с тире; для просмотра соседних карт щелкайте зеленые стрелки.


METAR-TAF: